Flugplatz Burg Feuerstein
 
.... wo jeder bestens aufgehoben ist! 

 

DSC04520

 


Täglich sind wir von 08.30 bis 12.30 Uhr und von 13.00 bis 16.45 Uhr unter 09194 - 79 75 75 

oder 

rund um die Uhr per Diese E-Mail-Adresse ist vor Spambots geschützt! Zur Anzeige muss JavaScript eingeschaltet sein! zu erreichen!

 

Flugbetrieb an jedem fliegbaren Tag von 9 Uhr bis 18 Uhr - nach Absprache auch flexibel darüber hinaus ! 

 


 
 

Wir bieten professionelle und trotzdem sehr günstige Ausbildung in 4 Sparten an:

Motorflug Motorsegler Segelflug Ultraleicht

Bei unseren Gebühren gibt keine „versteckten Kosten“ wie

  • Baustunden oder finanzielle Ausgleiche dafür
  • Verpflichtung zu Diensten oder finanzielle Ausgleiche dafür
  • Umschulungs- oder Typengebühren

Ebenso gibt es bei uns keinerlei zeitlicher Verpflichtungen zur Teilnahme am Flugbetrieb!

Kümmern Sie sich nur um Ihre fliegerischen Ambitionen – den Rest machen wir!

Feuerstein News Ticker

Webcam Blick N

webcam 2

Webcam Blick NO

webcam 1

METAR EDDN

[Quelle: ADDS]
METAR
EDDN 230450Z 17008KT 9999 -RA SCT026 BKN031 11/09 Q1016 NOSIG =
EDDN 222300Z 2300/2324 15006KT 9999 FEW012 BKN035 PROB30 TEMPO 2303/2309 RA BKN012 BECMG 2310/2312 21010KT BECMG 2312/2314 24015G30KT BECMG 2316/2318 27025G40KT RA PROB40 TEMPO 2318/2320 30035G50KT 4000 SHRA BKN012 BKN025CB BECMG 2320/2322 31015G25KT BECMG 2322/2324 31010KT
TAF
EDDN 222300Z 2300/2324 15006KT 9999 FEW012 BKN035 PROB30 TEMPO 2303/2309 RA BKN012 BECMG 2310/2312 21010KT BECMG 2312/2314 24015G30KT BECMG 2316/2318 27025G40KT RA PROB40 TEMPO 2318/2320 30035G50KT 4000 SHRA BKN012 BKN025CB BECMG 2320/2322 31015G25KT BECMG 2322/2324 31010KT =
SR / SS: 05:03 / 17:11 UTC (EDQE 2018-09-23)

Wetter EDQE


Das Wetter heute
Das Wetter morgen